Time;durP1;ratioP1;P1;durP2;ratioP2;P2;SDS_P1;SDS_P2;PMS_P1;PMS_P2;Temp;Humidity;BMP_temperature;BMP_pressure;BME280_temperature;BME280_humidity;BME280_pressure;Samples;Min_cycle;Max_cycle;Signal;HPM_P1;HPM_P2
2023/01/08 00:03:14;;;;;;;4.07;1.45;;;;;;;8.39;100.00;100190.38;10416112;28;20083;-64
2023/01/08 00:08:15;;;;;;;6.85;2.15;;;;;;;8.29;100.00;100181.78;10398275;28;20049;-64
2023/01/08 00:13:15;;;;;;;3.45;1.98;;;;;;;8.24;100.00;100179.72;10398414;28;20034;-65
2023/01/08 00:18:16;;;;;;;9.10;2.58;;;;;;;8.16;100.00;100186.09;10415492;28;20120;-64
2023/01/08 00:23:17;;;;;;;5.70;2.03;;;;;;;8.22;100.00;100164.75;10401720;28;20476;-64
2023/01/08 00:28:19;;;;;;;3.83;1.55;;;;;;;8.27;100.00;100155.03;10396106;28;20483;-65
2023/01/08 00:33:20;;;;;;;8.48;3.30;;;;;;;8.33;100.00;100142.63;10428942;28;20048;-64
2023/01/08 00:38:24;;;;;;;5.15;3.65;;;;;;;8.40;100.00;100140.81;10411739;28;20125;-65
2023/01/08 00:43:25;;;;;;;5.03;2.55;;;;;;;8.35;100.00;100118.94;10428249;28;20374;-64
2023/01/08 00:48:25;;;;;;;11.93;3.92;;;;;;;8.50;100.00;100116.13;10429758;28;20118;-65
2023/01/08 00:53:26;;;;;;;6.50;3.40;;;;;;;8.52;100.00;100112.19;10410332;28;20545;-64
2023/01/08 00:58:26;;;;;;;12.50;3.38;;;;;;;8.50;100.00;100125.06;10428633;28;20026;-64
2023/01/08 01:03:26;;;;;;;16.77;3.65;;;;;;;8.50;100.00;100114.25;10410119;28;20073;-64
2023/01/08 01:08:27;;;;;;;18.65;2.95;;;;;;;8.53;100.00;100116.56;10410615;28;20033;-64
2023/01/08 01:13:27;;;;;;;6.00;2.83;;;;;;;8.56;100.00;100115.31;10410584;28;20056;-65
2023/01/08 01:18:28;;;;;;;11.35;3.33;;;;;;;8.51;100.00;100112.38;10428164;28;20119;-64
2023/01/08 01:23:28;;;;;;;6.35;3.33;;;;;;;8.68;100.00;100104.75;10394510;28;20432;-65
2023/01/08 01:28:28;;;;;;;4.35;3.03;;;;;;;8.77;100.00;100108.91;10410826;28;20048;-63
2023/01/08 01:33:29;;;;;;;12.90;4.10;;;;;;;8.56;100.00;100113.44;10410409;28;20041;-64
2023/01/08 01:38:29;;;;;;;14.55;3.38;;;;;;;8.42;100.00;100114.44;10428134;28;20041;-65
2023/01/08 01:43:32;;;;;;;7.22;3.10;;;;;;;8.39;100.00;100120.22;10403637;28;20038;-64
2023/01/08 01:48:33;;;;;;;7.68;3.22;;;;;;;8.37;100.00;100114.19;10420386;28;20096;-65
2023/01/08 01:53:33;;;;;;;8.73;2.97;;;;;;;8.20;100.00;100111.03;10403726;28;20084;-64
2023/01/08 01:58:34;;;;;;;5.97;2.42;;;;;;;8.08;100.00;100110.75;10404506;28;20350;-64
2023/01/08 02:03:36;;;;;;;5.90;2.88;;;;;;;8.09;100.00;100127.75;10422178;28;20421;-64
2023/01/08 02:08:39;;;;;;;3.90;1.83;;;;;;;8.14;100.00;100103.75;10405666;28;20038;-64
2023/01/08 02:13:41;;;;;;;1.83;1.63;;;;;;;8.04;100.00;100105.94;10420210;28;20092;-64
2023/01/08 02:18:56;;;;;;;4.65;2.17;;;;;;;8.12;100.00;100087.75;10402315;28;20026;-64
2023/01/08 02:24:02;;;;;;;2.40;2.05;;;;;;;8.11;100.00;100098.75;10385507;28;20046;-64
2023/01/08 02:29:03;;;;;;;5.35;2.85;;;;;;;8.13;100.00;100108.28;10387015;28;20524;-65
2023/01/08 02:34:03;;;;;;;7.45;1.90;;;;;;;8.13;100.00;100084.00;10419806;28;20108;-65
2023/01/08 02:39:15;;;;;;;11.30;2.65;;;;;;;8.17;100.00;100087.16;10402646;28;20037;-65
2023/01/08 02:44:19;;;;;;;5.03;1.60;;;;;;;8.09;100.00;100085.44;10420095;28;20033;-64
2023/01/08 02:49:20;;;;;;;7.68;1.88;;;;;;;8.12;100.00;100092.31;10384434;28;20029;-65
2023/01/08 02:54:22;;;;;;;6.85;2.55;;;;;;;8.17;100.00;100103.34;10386153;28;20037;-64
2023/01/08 02:59:23;;;;;;;5.40;2.78;;;;;;;8.12;100.00;100120.09;10401490;28;20124;-65
2023/01/08 03:04:23;;;;;;;9.07;3.15;;;;;;;8.09;100.00;100100.81;10400482;28;20052;-65
2023/01/08 03:09:23;;;;;;;6.93;2.78;;;;;;;8.05;100.00;100100.38;10384340;28;20037;-64
2023/01/08 03:15:01;;;;;;;5.18;1.98;;;;;;;7.89;100.00;100100.72;10400022;28;20076;-64
2023/01/08 03:20:07;;;;;;;3.15;1.77;;;;;;;7.89;100.00;100100.72;10304901;28;20041;-64
2023/01/08 03:25:08;;;;;;;12.45;2.25;;;;;;;7.86;100.00;100087.63;10383510;28;20049;-63
2023/01/08 03:30:09;;;;;;;7.45;2.58;;;;;;;7.81;100.00;100069.34;10382933;28;20045;-63
2023/01/08 03:35:10;;;;;;;3.33;2.95;;;;;;;7.76;100.00;100068.31;10384146;28;20468;-63
2023/01/08 03:40:15;;;;;;;6.60;2.50;;;;;;;7.52;100.00;100073.13;10382962;28;20035;-63
2023/01/08 03:45:15;;;;;;;3.42;1.98;;;;;;;7.37;100.00;100075.09;10383010;28;20068;-63
2023/01/08 03:50:19;;;;;;;6.80;1.67;;;;;;;7.20;100.00;100071.88;10401898;28;20025;-64
2023/01/08 03:55:19;;;;;;;8.38;2.38;;;;;;;7.12;100.00;100093.56;10417469;28;20084;-64
2023/01/08 04:00:19;;;;;;;10.38;2.30;;;;;;;7.10;100.00;100085.69;10419710;28;20080;-64
2023/01/08 04:05:20;;;;;;;6.40;2.65;;;;;;;6.97;100.00;100078.31;10403662;28;20516;-64
2023/01/08 04:10:20;;;;;;;4.40;2.45;;;;;;;6.99;100.00;100089.75;10420764;28;20068;-64
2023/01/08 04:15:21;;;;;;;7.35;3.25;;;;;;;6.99;100.00;100086.22;10416310;28;20037;-64
2023/01/08 04:20:21;;;;;;;6.20;1.85;;;;;;;6.95;100.00;100087.63;10416048;28;20033;-63
2023/01/08 04:25:21;;;;;;;7.32;2.67;;;;;;;6.97;100.00;100078.31;10381286;28;20068;-63
2023/01/08 04:30:22;;;;;;;17.20;3.80;;;;;;;6.90;100.00;100071.25;10416913;28;20033;-63
2023/01/08 04:35:22;;;;;;;5.40;2.25;;;;;;;6.87;100.00;100077.00;10415782;28;20033;-65
2023/01/08 04:40:23;;;;;;;4.72;1.70;;;;;;;6.89;100.00;100069.53;10415720;28;20061;-64
2023/01/08 04:45:23;;;;;;;4.78;2.05;;;;;;;6.90;100.00;100068.53;10415479;28;20430;-63
2023/01/08 04:50:24;;;;;;;18.90;3.63;;;;;;;6.83;100.00;100073.00;10397278;28;20084;-63
2023/01/08 04:55:24;;;;;;;7.32;1.95;;;;;;;6.80;100.00;100066.19;10414943;28;20037;-64
2023/01/08 05:00:25;;;;;;;9.25;2.70;;;;;;;6.78;100.00;100059.31;10413936;28;20038;-64
2023/01/08 05:05:25;;;;;;;7.60;3.25;;;;;;;6.87;100.00;100055.47;10414005;28;20379;-63
2023/01/08 05:10:25;;;;;;;7.13;3.33;;;;;;;6.86;100.00;100051.09;10415640;28;20034;-65
2023/01/08 05:15:26;;;;;;;7.75;2.55;;;;;;;6.86;100.00;100046.56;10422832;28;20030;-64
2023/01/08 05:20:26;;;;;;;12.65;2.67;;;;;;;6.86;100.00;100046.56;10422254;28;20466;-64
2023/01/08 05:25:27;;;;;;;7.78;3.22;;;;;;;6.79;100.00;100053.72;10423191;28;20054;-64
2023/01/08 05:30:27;;;;;;;5.20;2.55;;;;;;;6.74;100.00;100043.56;10403664;28;20041;-64
2023/01/08 05:35:28;;;;;;;12.23;3.38;;;;;;;6.75;100.00;100045.22;10421999;28;20076;-64
2023/01/08 05:40:28;;;;;;;5.70;2.40;;;;;;;6.82;100.00;100031.00;10421223;28;20057;-64
2023/01/08 05:45:28;;;;;;;10.88;3.30;;;;;;;6.83;100.00;100040.72;10421024;28;20038;-64
2023/01/08 05:50:29;;;;;;;11.60;2.83;;;;;;;6.71;100.00;100038.56;10420782;28;20079;-64
2023/01/08 05:55:29;;;;;;;12.35;2.75;;;;;;;6.76;100.00;100040.66;10420344;28;20516;-64
2023/01/08 06:00:30;;;;;;;13.48;3.15;;;;;;;6.76;100.00;100056.81;10403628;28;20042;-64
2023/01/08 06:05:31;;;;;;;6.78;2.53;;;;;;;6.71;100.00;100060.09;10403310;28;20072;-64
2023/01/08 06:10:31;;;;;;;13.00;3.15;;;;;;;6.60;100.00;100065.97;10431582;28;20140;-64
2023/01/08 06:15:31;;;;;;;3.55;2.47;;;;;;;6.69;100.00;100051.38;10419855;28;20044;-65
2023/01/08 06:20:32;;;;;;;9.27;2.75;;;;;;;6.65;100.00;100050.09;10402488;28;20482;-64
2023/01/08 06:25:32;;;;;;;11.88;3.10;;;;;;;6.63;100.00;100056.69;10421053;28;20084;-64
2023/01/08 06:30:34;;;;;;;4.97;2.97;;;;;;;6.55;100.00;100048.78;10418946;28;20049;-63
2023/01/08 06:35:34;;;;;;;15.48;3.38;;;;;;;6.51;100.00;100053.69;10420223;28;20057;-64
2023/01/08 06:40:34;;;;;;;5.65;3.20;;;;;;;6.56;100.00;100061.19;10401919;28;20092;-64
2023/01/08 06:45:35;;;;;;;7.38;3.25;;;;;;;6.44;100.00;100055.47;10402207;28;20116;-64
2023/01/08 06:50:35;;;;;;;11.45;2.80;;;;;;;6.44;100.00;100048.22;10419532;28;20473;-64
2023/01/08 06:55:37;;;;;;;5.65;3.25;;;;;;;6.42;100.00;100038.72;10420433;28;20033;-64
2023/01/08 07:00:38;;;;;;;7.85;2.70;;;;;;;6.35;100.00;100053.91;10418638;28;20030;-64
2023/01/08 07:05:38;;;;;;;6.78;2.65;;;;;;;6.34;100.00;100041.50;10401810;28;20033;-64
2023/01/08 07:10:38;;;;;;;9.63;3.63;;;;;;;6.29;100.00;100034.84;10417084;28;20037;-64
2023/01/08 07:15:39;;;;;;;5.95;2.60;;;;;;;6.24;100.00;100033.75;10417615;28;20037;-65
2023/01/08 07:20:40;;;;;;;11.10;3.15;;;;;;;6.21;100.00;100010.78;10398990;28;20033;-64
2023/01/08 07:25:40;;;;;;;8.52;3.83;;;;;;;6.19;100.00;100026.28;10401186;28;20056;-64
2023/01/08 07:30:42;;;;;;;11.07;3.03;;;;;;;6.16;100.00;100023.13;10399949;28;20470;-64
2023/01/08 07:35:42;;;;;;;12.60;2.03;;;;;;;6.15;100.00;100013.38;10397560;28;20041;-64
2023/01/08 07:40:42;;;;;;;14.77;2.95;;;;;;;6.18;100.00;100023.75;10399495;28;20048;-64
2023/01/08 07:45:43;;;;;;;8.15;2.80;;;;;;;6.18;100.00;100029.97;10399182;28;20034;-64
2023/01/08 07:50:43;;;;;;;9.90;2.25;;;;;;;6.09;100.00;100020.34;10417173;28;20033;-64
2023/01/08 07:55:44;;;;;;;3.30;2.42;;;;;;;6.01;100.00;100039.31;10386040;28;20032;-65
2023/01/08 08:00:44;;;;;;;8.98;3.78;;;;;;;6.07;100.00;100041.22;10415935;28;20061;-64
2023/01/08 08:05:44;;;;;;;13.63;4.05;;;;;;;6.07;100.00;100022.41;10415273;28;20037;-65
2023/01/08 08:10:45;;;;;;;10.05;3.40;;;;;;;5.99;100.00;100009.91;10415632;28;20029;-64
2023/01/08 08:15:46;;;;;;;4.15;2.47;;;;;;;6.10;100.00;100027.41;10398373;28;20038;-64
2023/01/08 08:20:48;;;;;;;7.15;2.75;;;;;;;6.03;100.00;100015.72;10415922;28;20030;-65
2023/01/08 08:25:49;;;;;;;6.93;2.63;;;;;;;6.10;100.00;99997.84;10419093;28;20081;-64
2023/01/08 08:30:50;;;;;;;11.10;2.83;;;;;;;6.13;100.00;99999.34;10398234;28;20029;-64
2023/01/08 08:35:50;;;;;;;21.40;4.40;;;;;;;6.14;100.00;99982.16;10399233;28;20107;-64
2023/01/08 08:40:51;;;;;;;10.85;2.55;;;;;;;6.70;100.00;99975.03;10415957;28;20045;-65
2023/01/08 08:45:54;;;;;;;6.45;3.40;;;;;;;7.20;100.00;99965.00;10402343;28;20080;-64
2023/01/08 08:50:54;;;;;;;5.32;1.80;;;;;;;7.77;100.00;99970.25;10423090;28;20381;-64
2023/01/08 08:55:57;;;;;;;15.85;2.85;;;;;;;8.02;100.00;99955.19;10422721;28;20042;-64
2023/01/08 09:01:02;;;;;;;7.95;1.75;;;;;;;8.18;100.00;99963.94;10405282;28;20110;-65
2023/01/08 09:06:03;;;;;;;6.55;2.63;;;;;;;8.43;100.00;99951.53;10424412;28;20037;-65
2023/01/08 09:11:03;;;;;;;5.60;2.38;;;;;;;8.59;100.00;99943.03;10391976;28;20421;-65
2023/01/08 09:16:04;;;;;;;7.97;2.35;;;;;;;8.95;100.00;99944.44;10425921;28;20029;-65
2023/01/08 09:21:05;;;;;;;9.77;3.50;;;;;;;9.22;100.00;99941.66;10427168;28;20033;-66
2023/01/08 09:26:06;;;;;;;8.35;2.00;;;;;;;9.45;100.00;99943.91;10390880;28;20041;-64
2023/01/08 09:31:06;;;;;;;11.90;2.97;;;;;;;9.58;100.00;99951.13;10423586;28;20117;-65
2023/01/08 09:36:10;;;;;;;10.07;2.95;;;;;;;9.72;100.00;99948.13;10433301;28;20037;-65
2023/01/08 09:41:20;;;;;;;10.98;3.60;;;;;;;9.81;100.00;99948.72;10388498;28;20033;-65
2023/01/08 09:46:22;;;;;;;16.23;3.67;;;;;;;9.95;100.00;99939.47;10389256;28;20064;-66
2023/01/08 09:51:23;;;;;;;3.20;2.70;;;;;;;9.48;100.00;99938.06;10388841;28;20062;-66
2023/01/08 09:56:23;;;;;;;10.77;2.28;;;;;;;8.87;100.00;99947.38;10392879;28;20033;-65
2023/01/08 10:01:26;;;;;;;19.55;4.18;;;;;;;8.80;100.00;99952.75;10394231;28;20470;-64
2023/01/08 10:06:26;;;;;;;4.68;2.75;;;;;;;9.00;100.00;99951.94;10427330;28;20037;-67
2023/01/08 10:11:30;;;;;;;3.97;2.65;;;;;;;9.18;100.00;99951.25;10407930;28;20481;-67
2023/01/08 10:16:34;;;;;;;13.20;2.80;;;;;;;9.68;100.00;99941.50;10390404;28;20059;-66
2023/01/08 10:21:39;;;;;;;3.72;2.05;;;;;;;9.42;100.00;99933.53;10431314;28;20045;-65
2023/01/08 10:26:39;;;;;;;12.48;3.42;;;;;;;9.48;100.00;99941.59;10425318;28;20473;-66
2023/01/08 10:31:50;;;;;;;13.35;2.20;;;;;;;9.88;100.00;99930.59;10433272;28;20034;-65
2023/01/08 10:36:50;;;;;;;9.48;2.88;;;;;;;10.24;100.00;99912.88;10403452;28;20025;-66
2023/01/08 10:41:52;;;;;;;5.18;2.80;;;;;;;10.69;100.00;99893.81;10405147;28;20036;-66
2023/01/08 10:46:54;;;;;;;13.40;2.65;;;;;;;10.55;100.00;99900.38;10403469;28;20037;-65
2023/01/08 10:51:55;;;;;;;5.78;3.25;;;;;;;10.14;100.00;99899.81;10421590;28;20083;-65
2023/01/08 10:56:55;;;;;;;13.63;3.60;;;;;;;10.19;100.00;99896.47;10406414;28;20124;-66
2023/01/08 11:01:56;;;;;;;7.40;2.45;;;;;;;9.95;100.00;99890.81;10401896;28;20454;-66
2023/01/08 11:06:59;;;;;;;5.63;1.67;;;;;;;9.63;100.00;99884.53;10417970;28;20440;-66
2023/01/08 11:11:59;;;;;;;6.53;3.05;;;;;;;9.32;100.00;99879.94;10384191;28;20036;-66
2023/01/08 11:17:01;;;;;;;5.93;2.22;;;;;;;9.15;100.00;99879.56;10400409;28;20492;-66
2023/01/08 11:22:16;;;;;;;3.20;2.05;;;;;;;8.95;100.00;99862.63;10400669;28;20053;-66
2023/01/08 11:27:22;;;;;;;8.95;2.20;;;;;;;8.92;100.00;99860.34;10400356;28;20563;-66
2023/01/08 11:32:45;;;;;;;4.07;2.30;;;;;;;8.84;100.00;99842.50;10418541;28;20041;-67
2023/01/08 11:37:49;;;;;;;3.92;1.92;;;;;;;8.91;100.00;99856.00;10401150;28;20301;-67
2023/01/08 11:43:12;;;;;;;3.05;1.85;;;;;;;8.90;100.00;99863.22;10402875;28;20049;-65
2023/01/08 11:48:42;;;;;;;2.17;1.88;;;;;;;8.70;100.00;99851.66;10402074;28;20040;-66
2023/01/08 11:53:42;;;;;;;3.50;1.75;;;;;;;8.66;100.00;99847.75;10398543;28;20480;-65
2023/01/08 11:59:17;;;;;;;3.83;1.88;;;;;;;8.71;100.00;99848.78;10398365;28;20032;-66
2023/01/08 12:04:45;;;;;;;5.15;2.97;;;;;;;8.80;100.00;99833.97;10398274;28;20065;-66
2023/01/08 12:09:49;;;;;;;7.18;2.15;;;;;;;9.21;100.00;99829.28;10415619;28;20442;-65
2023/01/08 12:15:15;;;;;;;7.75;2.60;;;;;;;9.24;100.00;99831.53;10381988;28;20367;-67
2023/01/08 12:20:26;;;;;;;3.63;1.55;;;;;;;9.34;100.00;99821.09;10398035;28;20030;-68
2023/01/08 12:25:51;;;;;;;5.80;2.70;;;;;;;9.26;100.00;99794.34;10417259;28;20076;-66
2023/01/08 12:31:13;;;;;;;2.47;1.88;;;;;;;9.20;100.00;99812.25;10399451;28;20069;-66
2023/01/08 12:36:29;;;;;;;9.75;2.45;;;;;;;9.82;100.00;99809.78;10415376;28;20489;-67
2023/01/08 12:41:31;;;;;;;2.60;1.83;;;;;;;9.86;100.00;99788.53;10397279;28;20457;-66
2023/01/08 12:46:35;;;;;;;5.75;1.40;;;;;;;10.09;100.00;99772.53;10380262;28;20041;-64
2023/01/08 12:51:53;;;;;;;2.05;1.85;;;;;;;10.19;100.00;99780.97;10414440;28;20038;-64
2023/01/08 12:57:06;;;;;;;5.18;2.17;;;;;;;10.56;100.00;99762.13;10384866;28;20030;-66
2023/01/08 13:02:37;;;;;;;2.75;1.88;;;;;;;10.57;100.00;99757.53;10412840;28;20053;-65
2023/01/08 13:07:42;;;;;;;3.70;2.40;;;;;;;10.17;100.00;99752.47;10414550;28;20030;-64
2023/01/08 13:12:49;;;;;;;3.85;1.67;;;;;;;10.10;100.00;99735.50;10382278;28;20038;-65
2023/01/08 13:17:49;;;;;;;2.53;1.80;;;;;;;10.14;100.00;99747.50;10396787;28;20041;-66
2023/01/08 13:22:53;;;;;;;2.53;1.85;;;;;;;9.87;100.00;99726.13;10413864;28;20405;-65
2023/01/08 13:27:54;;;;;;;2.85;2.33;;;;;;;9.58;100.00;99732.22;10397361;28;20108;-64
2023/01/08 13:32:54;;;;;;;3.53;2.20;;;;;;;9.50;100.00;99720.59;10417166;28;20537;-64
2023/01/08 13:38:24;;;;;;;6.90;1.42;;;;;;;9.07;100.00;99715.09;10421186;28;20040;-65
2023/01/08 13:43:34;;;;;;;6.43;2.00;;;;;;;9.11;100.00;99720.88;10403737;28;20073;-65
2023/01/08 13:48:58;;;;;;;7.15;2.10;;;;;;;9.13;100.00;99708.00;10402762;28;20033;-66
2023/01/08 13:54:13;;;;;;;9.20;2.80;;;;;;;9.11;100.00;99696.56;10392472;28;20034;-64
2023/01/08 13:59:23;;;;;;;11.73;2.92;;;;;;;9.25;100.00;99679.22;10404995;28;20097;-64
2023/01/08 14:04:23;;;;;;;8.02;1.83;;;;;;;9.22;100.00;99663.44;10421709;28;20037;-64
2023/01/08 14:09:24;;;;;;;4.97;2.47;;;;;;;9.20;100.00;99665.56;10404613;28;20041;-64
2023/01/08 14:14:24;;;;;;;18.75;3.50;;;;;;;9.30;100.00;99660.50;10419806;28;20029;-65
2023/01/08 14:19:25;;;;;;;5.78;2.53;;;;;;;9.13;100.00;99667.47;10419922;28;20033;-65
2023/01/08 14:24:25;;;;;;;4.47;3.78;;;;;;;9.04;100.00;99653.41;10420755;28;20120;-64
2023/01/08 14:29:28;;;;;;;6.82;2.67;;;;;;;9.05;100.00;99646.94;10403215;28;20045;-64
2023/01/08 14:34:29;;;;;;;10.05;3.80;;;;;;;9.05;100.00;99645.06;10422070;28;20026;-65
2023/01/08 14:39:30;;;;;;;8.95;3.30;;;;;;;9.15;100.00;99619.47;10402653;28;20029;-65
2023/01/08 14:44:30;;;;;;;5.63;3.20;;;;;;;8.89;100.00;99642.91;10419279;28;20041;-64
2023/01/08 14:49:33;;;;;;;4.68;2.22;;;;;;;8.94;100.00;99629.59;10419533;28;20033;-64
2023/01/08 14:54:34;;;;;;;9.18;3.42;;;;;;;9.03;100.00;99632.84;10420152;28;20033;-65
2023/01/08 14:59:36;;;;;;;8.55;3.67;;;;;;;9.00;100.00;99622.50;10400356;28;20076;-67
2023/01/08 15:04:37;;;;;;;4.15;2.25;;;;;;;8.97;100.00;99606.72;10417790;28;20033;-65
2023/01/08 15:09:37;;;;;;;14.18;3.13;;;;;;;8.80;100.00;99614.50;10417992;28;20042;-64
2023/01/08 15:14:37;;;;;;;5.05;3.00;;;;;;;8.61;100.00;99609.03;10417088;28;20041;-66
2023/01/08 15:19:47;;;;;;;7.75;2.65;;;;;;;8.52;100.00;99602.22;10399337;28;20033;-65
2023/01/08 15:24:59;;;;;;;6.50;2.13;;;;;;;8.36;100.00;99584.66;10400508;28;20056;-65
2023/01/08 15:30:02;;;;;;;10.20;2.90;;;;;;;8.14;100.00;99586.81;10417590;28;20033;-64
2023/01/08 15:35:13;;;;;;;3.35;2.45;;;;;;;8.10;100.00;99588.28;10416024;28;20033;-66
2023/01/08 15:40:13;;;;;;;5.05;3.33;;;;;;;7.92;100.00;99580.88;10357403;28;20136;-65
2023/01/08 15:45:15;;;;;;;6.78;3.53;;;;;;;7.84;100.00;99578.41;10416011;28;20537;-65
2023/01/08 15:50:16;;;;;;;8.75;3.83;;;;;;;7.84;100.00;99578.41;10381960;28;20082;-65
2023/01/08 15:55:21;;;;;;;8.25;3.50;;;;;;;7.98;100.00;99573.81;10398698;28;20116;-65
2023/01/08 16:00:21;;;;;;;10.90;2.90;;;;;;;8.21;100.00;99569.78;10399106;28;20037;-65
2023/01/08 16:05:22;;;;;;;2.97;2.47;;;;;;;8.15;100.00;99564.19;10415682;28;20120;-65
2023/01/08 16:10:23;;;;;;;6.53;1.95;;;;;;;8.25;100.00;99577.22;10415620;28;20103;-65
2023/01/08 16:15:24;;;;;;;6.22;2.38;;;;;;;8.21;100.00;99572.47;10398186;28;20092;-65
2023/01/08 16:20:24;;;;;;;1.77;1.52;;;;;;;8.32;100.00;99555.59;10416750;28;20038;-66
2023/01/08 16:25:25;;;;;;;6.03;2.78;;;;;;;8.43;100.00;99564.94;10404724;28;20137;-65
2023/01/08 16:30:26;;;;;;;5.78;2.92;;;;;;;8.54;100.00;99559.66;10409909;28;20049;-66
2023/01/08 16:35:27;;;;;;;7.85;2.45;;;;;;;8.58;100.00;99552.81;10418151;28;20040;-66
2023/01/08 16:40:27;;;;;;;7.68;2.72;;;;;;;8.67;100.00;99552.53;10416206;28;20029;-65
2023/01/08 16:45:27;;;;;;;5.80;3.97;;;;;;;8.73;100.00;99546.25;10417028;28;20069;-65
2023/01/08 16:50:28;;;;;;;15.27;2.60;;;;;;;8.74;100.00;99543.34;10417808;28;20116;-66
2023/01/08 16:55:28;;;;;;;6.70;2.30;;;;;;;8.71;100.00;99519.50;10384493;28;20350;-66
2023/01/08 17:00:30;;;;;;;9.52;3.22;;;;;;;8.79;100.00;99521.09;10398227;28;20115;-65
2023/01/08 17:05:30;;;;;;;5.13;3.10;;;;;;;8.83;100.00;99503.41;10400170;28;20428;-65
2023/01/08 17:10:31;;;;;;;8.07;2.53;;;;;;;8.79;100.00;99497.63;10389587;28;20037;-65
2023/01/08 17:15:31;;;;;;;10.75;3.75;;;;;;;8.79;100.00;99494.09;10406049;28;20087;-66
2023/01/08 17:20:32;;;;;;;6.18;2.35;;;;;;;8.82;100.00;99486.38;10423475;28;20432;-65
2023/01/08 17:25:32;;;;;;;7.82;2.83;;;;;;;8.74;100.00;99477.72;10423156;28;20066;-66
2023/01/08 17:30:32;;;;;;;5.68;1.95;;;;;;;8.75;100.00;99469.44;10420374;28;20171;-66
2023/01/08 17:35:33;;;;;;;4.10;2.13;;;;;;;8.78;100.00;99460.06;10421750;28;20041;-65
2023/01/08 17:40:33;;;;;;;3.20;2.17;;;;;;;8.74;100.00;99461.53;10421400;28;20091;-65
2023/01/08 17:45:36;;;;;;;8.73;2.42;;;;;;;8.67;100.00;99444.56;10421814;28;20122;-67
2023/01/08 17:50:40;;;;;;;6.38;2.65;;;;;;;8.70;100.00;99426.06;10420635;28;20026;-65
2023/01/08 17:55:40;;;;;;;15.80;2.00;;;;;;;8.72;100.00;99426.69;10403627;28;20116;-65
2023/01/08 18:00:40;;;;;;;17.33;2.72;;;;;;;8.72;100.00;99421.28;10421077;28;20045;-66
2023/01/08 18:05:41;;;;;;;6.00;2.05;;;;;;;8.75;100.00;99409.22;10421413;28;20095;-64
2023/01/08 18:10:41;;;;;;;4.97;1.92;;;;;;;8.79;100.00;99396.94;10421363;28;20044;-65
2023/01/08 18:15:41;;;;;;;4.07;2.55;;;;;;;8.77;100.00;99401.72;10403122;28;20388;-65
2023/01/08 18:20:42;;;;;;;5.88;2.50;;;;;;;8.73;100.00;99395.13;10420183;28;20034;-65
2023/01/08 18:25:42;;;;;;;12.98;1.95;;;;;;;8.48;100.00;99387.88;10420698;28;20123;-65
2023/01/08 18:30:44;;;;;;;3.28;2.22;;;;;;;8.38;100.00;99376.75;10421155;28;20029;-64
2023/01/08 18:35:45;;;;;;;6.18;3.42;;;;;;;8.43;100.00;99389.59;10426470;28;20387;-65
2023/01/08 18:40:45;;;;;;;10.07;2.90;;;;;;;8.57;100.00;99361.44;10427885;28;20043;-65
2023/01/08 18:45:45;;;;;;;4.57;2.05;;;;;;;8.66;100.00;99361.97;10407800;28;20393;-66
2023/01/08 18:50:46;;;;;;;5.30;2.58;;;;;;;8.66;100.00;99359.28;10425939;28;20044;-66
2023/01/08 18:55:46;;;;;;;5.25;2.35;;;;;;;8.69;100.00;99358.84;10423497;28;20041;-66
2023/01/08 19:00:47;;;;;;;4.55;2.15;;;;;;;8.74;100.00;99362.53;10422452;28;20026;-66
2023/01/08 19:05:47;;;;;;;6.70;2.53;;;;;;;8.79;100.00;99337.56;10421377;28;20042;-66
2023/01/08 19:10:49;;;;;;;3.83;2.70;;;;;;;8.83;100.00;99342.25;10418854;28;20437;-66
2023/01/08 19:15:49;;;;;;;4.80;3.00;;;;;;;8.82;100.00;99334.41;10418128;28;20120;-65
2023/01/08 19:20:50;;;;;;;8.70;3.65;;;;;;;8.89;100.00;99327.06;10418243;28;20048;-66
2023/01/08 19:25:50;;;;;;;3.95;2.30;;;;;;;8.90;100.00;99317.88;10399229;28;20108;-66
2023/01/08 19:30:57;;;;;;;9.85;3.15;;;;;;;8.93;100.00;99314.75;10417846;28;20381;-65
2023/01/08 19:36:01;;;;;;;;;;;;;;;8.92;100.00;99301.50;10401530;28;20025;-64
2023/01/08 19:41:02;;;;;;;4.45;3.42;;;;;;;8.93;100.00;99295.84;10417980;28;20055;-66
2023/01/08 19:46:06;;;;;;;8.52;3.25;;;;;;;8.87;100.00;99288.69;10399890;28;20077;-65
2023/01/08 19:51:07;;;;;;;6.47;2.75;;;;;;;8.66;100.00;99291.81;10400531;28;20057;-66
2023/01/08 19:56:10;;;;;;;9.40;3.28;;;;;;;8.43;100.00;99279.81;10418368;28;20026;-66
2023/01/08 20:01:14;;;;;;;11.00;4.20;;;;;;;8.34;100.00;99259.53;10398891;28;20033;-66
2023/01/08 20:06:23;;;;;;;4.53;3.00;;;;;;;8.32;100.00;99258.94;10398310;28;20029;-66
2023/01/08 20:11:23;;;;;;;8.25;4.05;;;;;;;8.33;100.00;99244.41;10399998;28;20033;-65
2023/01/08 20:16:24;;;;;;;5.85;3.90;;;;;;;8.40;100.00;99250.59;10383064;28;20032;-65
2023/01/08 20:21:24;;;;;;;6.40;3.15;;;;;;;8.38;100.00;99242.72;10398436;28;20397;-65
2023/01/08 20:26:26;;;;;;;3.83;3.47;;;;;;;8.58;100.00;99230.88;10415571;28;20045;-65
2023/01/08 20:31:31;;;;;;;6.43;2.88;;;;;;;8.72;100.00;99226.16;10398163;28;20095;-66
2023/01/08 20:36:32;;;;;;;9.45;3.40;;;;;;;8.72;100.00;99232.38;10416809;28;20072;-66
2023/01/08 20:41:33;;;;;;;13.65;4.40;;;;;;;8.48;100.00;99236.78;10402243;28;20037;-65
2023/01/08 20:46:34;;;;;;;6.15;3.45;;;;;;;8.26;100.00;99249.03;10425911;28;20077;-64
2023/01/08 20:51:36;;;;;;;6.13;4.05;;;;;;;8.15;100.00;99239.81;10426418;28;20033;-64
2023/01/08 20:56:36;;;;;;;4.53;3.38;;;;;;;8.01;100.00;99231.03;10406869;28;20041;-63
2023/01/08 21:01:37;;;;;;;4.00;2.15;;;;;;;7.92;100.00;99219.72;10423480;28;20030;-63
2023/01/08 21:06:37;;;;;;;13.57;2.83;;;;;;;7.83;100.00;99218.34;10389357;28;20055;-64
2023/01/08 21:11:38;;;;;;;10.40;2.13;;;;;;;7.77;100.00;99229.19;10428325;28;20045;-64
2023/01/08 21:16:39;;;;;;;8.23;2.65;;;;;;;7.78;100.00;99230.81;10394707;28;20021;-64
2023/01/08 21:21:39;;;;;;;2.58;2.30;;;;;;;7.71;100.00;99246.22;10407866;28;20169;-63
2023/01/08 21:26:40;;;;;;;10.10;2.97;;;;;;;7.67;100.00;99237.75;10422966;28;20413;-63
2023/01/08 21:31:40;;;;;;;1.55;1.45;;;;;;;7.68;100.00;99240.22;10422430;28;20025;-64
2023/01/08 21:36:41;;;;;;;11.38;2.42;;;;;;;7.64;100.00;99217.47;10421270;28;20042;-62
2023/01/08 21:47:00;;;;;;;6.90;2.70;;;;;;;7.44;100.00;99214.94;10406427;28;20045;-62
2023/01/08 21:57:20;;;;;;;4.57;2.53;;;;;;;7.36;100.00;99195.50;10420521;28;20041;-63
2023/01/08 22:02:21;;;;;;;4.35;2.50;;;;;;;7.40;100.00;99196.72;10403127;28;20025;-63
2023/01/08 22:07:21;;;;;;;3.63;2.53;;;;;;;7.38;100.00;99210.41;10420000;28;20029;-63
2023/01/08 22:12:22;;;;;;;3.92;2.28;;;;;;;7.31;100.00;99188.09;10419938;28;20037;-63
2023/01/08 22:17:23;;;;;;;4.80;2.38;;;;;;;7.22;100.00;99209.06;10402611;28;20029;-63
2023/01/08 22:22:23;;;;;;;3.67;1.88;;;;;;;7.10;100.00;99202.72;10401918;28;20058;-63
2023/01/08 22:27:24;;;;;;;11.77;1.63;;;;;;;7.03;100.00;99212.72;10419823;28;20045;-63
2023/01/08 22:32:24;;;;;;;2.58;1.75;;;;;;;6.73;100.00;99218.66;10419956;28;20029;-62
2023/01/08 22:37:24;;;;;;;1.77;1.33;;;;;;;6.73;100.00;99223.19;10402215;28;20091;-62
2023/01/08 22:42:25;;;;;;;3.38;1.70;;;;;;;6.65;100.00;99221.59;10401689;28;20457;-62
2023/01/08 22:47:26;;;;;;;4.75;1.63;;;;;;;6.68;100.00;99231.91;10419722;28;20033;-63
2023/01/08 22:52:26;;;;;;;4.45;1.25;;;;;;;6.59;100.00;99225.13;10401424;28;20029;-62
2023/01/08 22:57:27;;;;;;;4.47;2.35;;;;;;;6.52;100.00;99238.59;10400864;28;20121;-62
2023/01/08 23:02:27;;;;;;;11.07;1.90;;;;;;;6.50;100.00;99251.41;10418226;28;20410;-62
2023/01/08 23:07:28;;;;;;;1.67;1.15;;;;;;;6.36;100.00;99257.06;10418640;28;20044;-62
2023/01/08 23:12:31;;;;;;;6.50;1.48;;;;;;;6.32;100.00;99263.88;10420375;28;20033;-62
2023/01/08 23:17:33;;;;;;;2.08;1.60;;;;;;;6.34;100.00;99284.13;10418543;28;20385;-62
2023/01/08 23:22:34;;;;;;;2.88;1.60;;;;;;;6.22;100.00;99283.97;10418357;28;20409;-63
2023/01/08 23:27:34;;;;;;;3.95;1.67;;;;;;;6.24;100.00;99289.94;10418019;28;20072;-63